Terminal Aerodrome Forecast
Issued by NWS Pittsburgh, PA

Current Version | Previous Version | Graphics & Text | Print | Product List | Glossary On
Versions: 1 2 3 4 5 6 7 8 9 10 11 12 13 14 15 16 17 18 19 20 21 22 23 24 25 26 27 28
030
FTUS41 KPBZ 191454 AAA
TAFPIT
TAF AMD
KPIT 191454Z 1915/2018 VRB03KT P6SM SCT250
     FM191700 VRB03KT P6SM BKN050
     FM192300 00000KT P6SM BKN150
     FM201200 VRB03KT P6SM BKN060=

USA.gov is the U.S. government's official web portal to all federal, state and local government web resources and services.